Terminal Aerodrome Forecast
Issued by NWS

Home | Current Version | Previous Version | Text Only | Print | Product List | Glossary On
Versions: 1 2 3 4 5 6 7 8 9 10 11 12 13 14 15 16 17
000
FTUS43 KBIS 250500
TAFMOT
TAF
KMOT 250520Z 2506/2606 23004KT P6SM SKC
     FM251700 34005KT P6SM SCT120
     FM252100 05007KT P6SM BKN080
     FM260400 07015KT P6SM BKN080=

USA.gov is the U.S. government's official web portal to all federal, state and local government web resources and services.